sensor_id;sensor_type;location;lat;lon;timestamp;temperature;humidity
13405;DHT22;6773;51.192;7.024;2022-11-24T00:01:59;7.00;99.90
13405;DHT22;6773;51.192;7.024;2022-11-24T00:04:25;7.00;99.90
13405;DHT22;6773;51.192;7.024;2022-11-24T00:06:51;7.00;99.90
13405;DHT22;6773;51.192;7.024;2022-11-24T00:09:18;6.90;99.90
13405;DHT22;6773;51.192;7.024;2022-11-24T00:11:44;6.90;99.90
13405;DHT22;6773;51.192;7.024;2022-11-24T00:14:10;6.90;99.90
13405;DHT22;6773;51.192;7.024;2022-11-24T00:16:37;6.90;99.90
13405;DHT22;6773;51.192;7.024;2022-11-24T00:19:07;6.80;99.90
13405;DHT22;6773;51.192;7.024;2022-11-24T00:21:36;6.90;99.90
13405;DHT22;6773;51.192;7.024;2022-11-24T00:24:02;6.80;99.90
13405;DHT22;6773;51.192;7.024;2022-11-24T00:26:30;6.90;99.90
13405;DHT22;6773;51.192;7.024;2022-11-24T00:28:58;6.80;99.90
13405;DHT22;6773;51.192;7.024;2022-11-24T00:31:28;6.80;99.90
13405;DHT22;6773;51.192;7.024;2022-11-24T00:33:56;6.80;99.90
13405;DHT22;6773;51.192;7.024;2022-11-24T00:36:24;6.80;99.90
13405;DHT22;6773;51.192;7.024;2022-11-24T00:38:58;6.80;99.90
13405;DHT22;6773;51.192;7.024;2022-11-24T00:41:25;6.80;99.90
13405;DHT22;6773;51.192;7.024;2022-11-24T00:46:17;6.80;99.90
13405;DHT22;6773;51.192;7.024;2022-11-24T00:48:44;6.80;99.90
13405;DHT22;6773;51.192;7.024;2022-11-24T00:51:11;6.80;99.90
13405;DHT22;6773;51.192;7.024;2022-11-24T00:53:37;6.90;99.90
13405;DHT22;6773;51.192;7.024;2022-11-24T01:01:04;6.90;99.90
13405;DHT22;6773;51.192;7.024;2022-11-24T01:03:31;6.90;99.90
13405;DHT22;6773;51.192;7.024;2022-11-24T01:06:04;6.90;99.90
13405;DHT22;6773;51.192;7.024;2022-11-24T01:11:16;6.90;99.90
13405;DHT22;6773;51.192;7.024;2022-11-24T01:13:44;6.90;99.90
13405;DHT22;6773;51.192;7.024;2022-11-24T01:16:21;6.90;99.90
13405;DHT22;6773;51.192;7.024;2022-11-24T01:18:48;6.90;99.90
13405;DHT22;6773;51.192;7.024;2022-11-24T01:21:14;6.80;99.90
13405;DHT22;6773;51.192;7.024;2022-11-24T01:23:40;6.80;99.90
13405;DHT22;6773;51.192;7.024;2022-11-24T01:26:07;6.90;99.90
13405;DHT22;6773;51.192;7.024;2022-11-24T01:28:33;6.80;99.90
13405;DHT22;6773;51.192;7.024;2022-11-24T01:31:01;6.80;99.90
13405;DHT22;6773;51.192;7.024;2022-11-24T01:33:27;6.90;99.90
13405;DHT22;6773;51.192;7.024;2022-11-24T01:35:53;6.90;99.90
13405;DHT22;6773;51.192;7.024;2022-11-24T01:38:19;6.90;99.90
13405;DHT22;6773;51.192;7.024;2022-11-24T01:40:45;7.00;99.90
13405;DHT22;6773;51.192;7.024;2022-11-24T01:43:19;7.10;99.90
13405;DHT22;6773;51.192;7.024;2022-11-24T01:45:46;7.10;99.90
13405;DHT22;6773;51.192;7.024;2022-11-24T01:48:22;7.10;99.90
13405;DHT22;6773;51.192;7.024;2022-11-24T01:50:53;7.10;99.90
13405;DHT22;6773;51.192;7.024;2022-11-24T01:53:21;7.10;99.90
13405;DHT22;6773;51.192;7.024;2022-11-24T01:55:47;7.20;99.90
13405;DHT22;6773;51.192;7.024;2022-11-24T01:58:17;7.20;99.90
13405;DHT22;6773;51.192;7.024;2022-11-24T02:00:44;7.20;99.90
13405;DHT22;6773;51.192;7.024;2022-11-24T02:03:16;7.20;99.90
13405;DHT22;6773;51.192;7.024;2022-11-24T02:13:43;7.20;99.90
13405;DHT22;6773;51.192;7.024;2022-11-24T02:16:11;7.20;99.90
13405;DHT22;6773;51.192;7.024;2022-11-24T02:18:41;7.10;99.90
13405;DHT22;6773;51.192;7.024;2022-11-24T02:21:06;7.20;99.90
13405;DHT22;6773;51.192;7.024;2022-11-24T02:23:43;7.20;99.90
13405;DHT22;6773;51.192;7.024;2022-11-24T02:26:39;7.20;99.90
13405;DHT22;6773;51.192;7.024;2022-11-24T02:29:06;7.30;99.90
13405;DHT22;6773;51.192;7.024;2022-11-24T02:31:32;7.30;99.90
13405;DHT22;6773;51.192;7.024;2022-11-24T02:33:58;7.30;99.90
13405;DHT22;6773;51.192;7.024;2022-11-24T02:41:19;7.40;99.90
13405;DHT22;6773;51.192;7.024;2022-11-24T02:43:55;7.40;99.90
13405;DHT22;6773;51.192;7.024;2022-11-24T02:46:21;7.40;99.90
13405;DHT22;6773;51.192;7.024;2022-11-24T02:48:47;7.40;99.90
13405;DHT22;6773;51.192;7.024;2022-11-24T02:56:05;7.60;99.90
13405;DHT22;6773;51.192;7.024;2022-11-24T02:58:30;7.60;99.90
13405;DHT22;6773;51.192;7.024;2022-11-24T03:00:56;7.60;99.90
13405;DHT22;6773;51.192;7.024;2022-11-24T03:03:23;7.70;99.90
13405;DHT22;6773;51.192;7.024;2022-11-24T03:08:15;7.70;99.90
13405;DHT22;6773;51.192;7.024;2022-11-24T03:13:07;7.80;99.90
13405;DHT22;6773;51.192;7.024;2022-11-24T03:15:33;7.80;99.90
13405;DHT22;6773;51.192;7.024;2022-11-24T03:22:51;7.80;99.90
13405;DHT22;6773;51.192;7.024;2022-11-24T03:25:17;7.80;99.90
13405;DHT22;6773;51.192;7.024;2022-11-24T03:27:43;7.70;99.90
13405;DHT22;6773;51.192;7.024;2022-11-24T03:30:09;7.70;99.90
13405;DHT22;6773;51.192;7.024;2022-11-24T03:32:36;7.70;99.90
13405;DHT22;6773;51.192;7.024;2022-11-24T03:35:02;7.70;99.90
13405;DHT22;6773;51.192;7.024;2022-11-24T03:37:28;7.70;99.90
13405;DHT22;6773;51.192;7.024;2022-11-24T03:42:19;7.80;99.90
13405;DHT22;6773;51.192;7.024;2022-11-24T03:44:45;7.80;99.90
13405;DHT22;6773;51.192;7.024;2022-11-24T03:47:11;7.80;99.90
13405;DHT22;6773;51.192;7.024;2022-11-24T03:49:37;7.80;99.90
13405;DHT22;6773;51.192;7.024;2022-11-24T03:52:03;7.80;99.90
13405;DHT22;6773;51.192;7.024;2022-11-24T03:59:20;7.80;99.90
13405;DHT22;6773;51.192;7.024;2022-11-24T04:01:46;7.80;99.90
13405;DHT22;6773;51.192;7.024;2022-11-24T04:04:12;7.80;99.90
13405;DHT22;6773;51.192;7.024;2022-11-24T04:06:38;7.80;99.90
13405;DHT22;6773;51.192;7.024;2022-11-24T04:09:04;7.80;99.90
13405;DHT22;6773;51.192;7.024;2022-11-24T04:11:30;7.80;99.90
13405;DHT22;6773;51.192;7.024;2022-11-24T04:14:14;7.90;99.90
13405;DHT22;6773;51.192;7.024;2022-11-24T04:16:39;7.90;99.90
13405;DHT22;6773;51.192;7.024;2022-11-24T04:19:05;7.90;99.90
13405;DHT22;6773;51.192;7.024;2022-11-24T04:21:31;7.90;99.90
13405;DHT22;6773;51.192;7.024;2022-11-24T04:23:56;8.00;99.90
13405;DHT22;6773;51.192;7.024;2022-11-24T04:26:22;7.90;99.90
13405;DHT22;6773;51.192;7.024;2022-11-24T04:28:47;7.90;99.90
13405;DHT22;6773;51.192;7.024;2022-11-24T04:31:13;7.90;99.90
13405;DHT22;6773;51.192;7.024;2022-11-24T04:36:06;7.90;99.90
13405;DHT22;6773;51.192;7.024;2022-11-24T04:41:00;7.80;99.90
13405;DHT22;6773;51.192;7.024;2022-11-24T04:43:28;7.80;99.90
13405;DHT22;6773;51.192;7.024;2022-11-24T04:48:19;7.90;99.90
13405;DHT22;6773;51.192;7.024;2022-11-24T04:50:45;7.80;99.90
13405;DHT22;6773;51.192;7.024;2022-11-24T04:55:38;7.90;99.90
13405;DHT22;6773;51.192;7.024;2022-11-24T04:58:07;7.90;99.90
13405;DHT22;6773;51.192;7.024;2022-11-24T05:02:59;7.80;99.90
13405;DHT22;6773;51.192;7.024;2022-11-24T05:07:50;7.90;99.90
13405;DHT22;6773;51.192;7.024;2022-11-24T05:10:16;7.90;99.90
13405;DHT22;6773;51.192;7.024;2022-11-24T05:13:05;7.90;99.90
13405;DHT22;6773;51.192;7.024;2022-11-24T05:15:31;7.90;99.90
13405;DHT22;6773;51.192;7.024;2022-11-24T05:17:57;7.90;99.90
13405;DHT22;6773;51.192;7.024;2022-11-24T05:20:23;8.00;99.90
13405;DHT22;6773;51.192;7.024;2022-11-24T05:22:49;8.00;99.90
13405;DHT22;6773;51.192;7.024;2022-11-24T05:25:14;8.00;99.90
13405;DHT22;6773;51.192;7.024;2022-11-24T05:30:07;8.10;99.90
13405;DHT22;6773;51.192;7.024;2022-11-24T05:32:33;8.00;99.90
13405;DHT22;6773;51.192;7.024;2022-11-24T05:34:59;8.00;99.90
13405;DHT22;6773;51.192;7.024;2022-11-24T05:37:29;8.10;99.90
13405;DHT22;6773;51.192;7.024;2022-11-24T05:39:55;8.10;99.90
13405;DHT22;6773;51.192;7.024;2022-11-24T05:45:10;8.10;99.90
13405;DHT22;6773;51.192;7.024;2022-11-24T05:47:37;8.10;99.90
13405;DHT22;6773;51.192;7.024;2022-11-24T05:50:03;8.10;99.90
13405;DHT22;6773;51.192;7.024;2022-11-24T05:52:29;8.10;99.90
13405;DHT22;6773;51.192;7.024;2022-11-24T05:57:20;8.10;99.90
13405;DHT22;6773;51.192;7.024;2022-11-24T05:59:46;8.00;99.90
13405;DHT22;6773;51.192;7.024;2022-11-24T06:04:38;8.10;99.90
13405;DHT22;6773;51.192;7.024;2022-11-24T06:07:06;8.00;99.90
13405;DHT22;6773;51.192;7.024;2022-11-24T06:09:35;8.00;99.90
13405;DHT22;6773;51.192;7.024;2022-11-24T06:12:02;8.00;99.90
13405;DHT22;6773;51.192;7.024;2022-11-24T06:14:27;8.00;99.90
13405;DHT22;6773;51.192;7.024;2022-11-24T06:16:53;8.00;99.90
13405;DHT22;6773;51.192;7.024;2022-11-24T06:19:18;7.90;99.90
13405;DHT22;6773;51.192;7.024;2022-11-24T06:21:44;8.00;99.90
13405;DHT22;6773;51.192;7.024;2022-11-24T06:24:10;7.90;99.90
13405;DHT22;6773;51.192;7.024;2022-11-24T06:26:35;7.90;99.90
13405;DHT22;6773;51.192;7.024;2022-11-24T06:29:01;7.90;99.90
13405;DHT22;6773;51.192;7.024;2022-11-24T06:33:53;7.90;99.90
13405;DHT22;6773;51.192;7.024;2022-11-24T06:36:18;8.00;99.90
13405;DHT22;6773;51.192;7.024;2022-11-24T06:38:44;8.00;99.90
13405;DHT22;6773;51.192;7.024;2022-11-24T06:41:14;8.00;99.90
13405;DHT22;6773;51.192;7.024;2022-11-24T06:46:06;8.00;99.90
13405;DHT22;6773;51.192;7.024;2022-11-24T06:48:32;8.10;99.90
13405;DHT22;6773;51.192;7.024;2022-11-24T06:51:00;8.00;99.90
13405;DHT22;6773;51.192;7.024;2022-11-24T06:55:52;8.10;99.90
13405;DHT22;6773;51.192;7.024;2022-11-24T06:58:17;8.10;99.90
13405;DHT22;6773;51.192;7.024;2022-11-24T07:00:43;8.10;99.90
13405;DHT22;6773;51.192;7.024;2022-11-24T07:03:14;8.10;99.90
13405;DHT22;6773;51.192;7.024;2022-11-24T07:05:40;8.00;99.90
13405;DHT22;6773;51.192;7.024;2022-11-24T07:08:06;8.10;99.90
13405;DHT22;6773;51.192;7.024;2022-11-24T07:10:32;8.20;99.90
13405;DHT22;6773;51.192;7.024;2022-11-24T07:12:57;8.10;99.90
13405;DHT22;6773;51.192;7.024;2022-11-24T07:17:49;8.10;99.90
13405;DHT22;6773;51.192;7.024;2022-11-24T07:20:15;8.10;99.90
13405;DHT22;6773;51.192;7.024;2022-11-24T07:25:07;8.20;99.90
13405;DHT22;6773;51.192;7.024;2022-11-24T07:27:34;8.10;99.90
13405;DHT22;6773;51.192;7.024;2022-11-24T07:30:00;8.20;99.90
13405;DHT22;6773;51.192;7.024;2022-11-24T07:34:52;8.10;99.90
13405;DHT22;6773;51.192;7.024;2022-11-24T07:37:17;8.10;99.90
13405;DHT22;6773;51.192;7.024;2022-11-24T07:42:09;8.10;99.90
13405;DHT22;6773;51.192;7.024;2022-11-24T07:47:02;8.00;99.90
13405;DHT22;6773;51.192;7.024;2022-11-24T07:51:53;8.00;99.90
13405;DHT22;6773;51.192;7.024;2022-11-24T07:54:19;8.00;99.90
13405;DHT22;6773;51.192;7.024;2022-11-24T07:56:47;8.00;99.90
13405;DHT22;6773;51.192;7.024;2022-11-24T08:04:05;8.00;99.90
13405;DHT22;6773;51.192;7.024;2022-11-24T08:06:31;8.00;99.90
13405;DHT22;6773;51.192;7.024;2022-11-24T08:08:57;8.00;99.90
13405;DHT22;6773;51.192;7.024;2022-11-24T08:11:23;8.00;99.90
13405;DHT22;6773;51.192;7.024;2022-11-24T08:13:49;8.00;99.90
13405;DHT22;6773;51.192;7.024;2022-11-24T08:16:16;7.90;99.90
13405;DHT22;6773;51.192;7.024;2022-11-24T08:18:43;8.00;99.90
13405;DHT22;6773;51.192;7.024;2022-11-24T08:21:12;8.00;99.90
13405;DHT22;6773;51.192;7.024;2022-11-24T08:23:38;7.90;99.90
13405;DHT22;6773;51.192;7.024;2022-11-24T08:26:05;7.90;99.90
13405;DHT22;6773;51.192;7.024;2022-11-24T08:28:34;7.90;99.90
13405;DHT22;6773;51.192;7.024;2022-11-24T08:31:08;7.90;99.90
13405;DHT22;6773;51.192;7.024;2022-11-24T08:36:11;8.00;99.90
13405;DHT22;6773;51.192;7.024;2022-11-24T08:38:36;8.00;99.90
13405;DHT22;6773;51.192;7.024;2022-11-24T08:41:04;8.00;99.90
13405;DHT22;6773;51.192;7.024;2022-11-24T08:46:05;8.00;99.90
13405;DHT22;6773;51.192;7.024;2022-11-24T08:50:58;8.10;99.90
13405;DHT22;6773;51.192;7.024;2022-11-24T08:53:24;8.10;99.90
13405;DHT22;6773;51.192;7.024;2022-11-24T08:55:50;8.10;99.90
13405;DHT22;6773;51.192;7.024;2022-11-24T08:58:15;8.10;99.90
13405;DHT22;6773;51.192;7.024;2022-11-24T09:00:42;8.10;99.90
13405;DHT22;6773;51.192;7.024;2022-11-24T09:03:10;8.10;99.90
13405;DHT22;6773;51.192;7.024;2022-11-24T09:05:36;8.10;99.90
13405;DHT22;6773;51.192;7.024;2022-11-24T09:08:02;8.20;99.90
13405;DHT22;6773;51.192;7.024;2022-11-24T09:10:27;8.20;99.90
13405;DHT22;6773;51.192;7.024;2022-11-24T09:12:53;8.20;99.90
13405;DHT22;6773;51.192;7.024;2022-11-24T09:17:45;8.20;99.90
13405;DHT22;6773;51.192;7.024;2022-11-24T09:20:11;8.20;99.90
13405;DHT22;6773;51.192;7.024;2022-11-24T09:22:36;8.20;99.90
13405;DHT22;6773;51.192;7.024;2022-11-24T09:25:04;8.20;99.90
13405;DHT22;6773;51.192;7.024;2022-11-24T09:27:30;8.30;99.90
13405;DHT22;6773;51.192;7.024;2022-11-24T09:29:56;8.30;99.90
13405;DHT22;6773;51.192;7.024;2022-11-24T09:32:21;8.40;99.90
13405;DHT22;6773;51.192;7.024;2022-11-24T09:34:49;8.30;99.90
13405;DHT22;6773;51.192;7.024;2022-11-24T09:37:15;8.50;99.90
13405;DHT22;6773;51.192;7.024;2022-11-24T09:39:40;8.50;99.90
13405;DHT22;6773;51.192;7.024;2022-11-24T09:42:13;8.50;99.90
13405;DHT22;6773;51.192;7.024;2022-11-24T09:44:52;8.50;99.90
13405;DHT22;6773;51.192;7.024;2022-11-24T09:50:27;8.60;99.90
13405;DHT22;6773;51.192;7.024;2022-11-24T09:55:58;8.60;99.90
13405;DHT22;6773;51.192;7.024;2022-11-24T09:58:44;8.60;99.90
13405;DHT22;6773;51.192;7.024;2022-11-24T10:01:21;8.60;99.90
13405;DHT22;6773;51.192;7.024;2022-11-24T10:03:50;8.60;99.90
13405;DHT22;6773;51.192;7.024;2022-11-24T10:06:29;8.70;99.90
13405;DHT22;6773;51.192;7.024;2022-11-24T10:15:06;8.80;99.90
13405;DHT22;6773;51.192;7.024;2022-11-24T10:25:23;8.90;99.90
13405;DHT22;6773;51.192;7.024;2022-11-24T10:28:01;8.90;99.90
13405;DHT22;6773;51.192;7.024;2022-11-24T10:33:07;8.80;99.90
13405;DHT22;6773;51.192;7.024;2022-11-24T10:35:39;8.90;99.90
13405;DHT22;6773;51.192;7.024;2022-11-24T10:40:49;9.00;99.90
13405;DHT22;6773;51.192;7.024;2022-11-24T10:45:42;9.20;99.90
13405;DHT22;6773;51.192;7.024;2022-11-24T10:48:24;9.30;99.90
13405;DHT22;6773;51.192;7.024;2022-11-24T10:50:52;9.30;99.90
13405;DHT22;6773;51.192;7.024;2022-11-24T10:53:33;9.60;99.90
13405;DHT22;6773;51.192;7.024;2022-11-24T10:56:02;10.20;99.90
13405;DHT22;6773;51.192;7.024;2022-11-24T10:58:34;9.80;99.90
13405;DHT22;6773;51.192;7.024;2022-11-24T11:01:19;9.80;99.90
13405;DHT22;6773;51.192;7.024;2022-11-24T11:03:51;9.80;99.90
13405;DHT22;6773;51.192;7.024;2022-11-24T11:06:28;9.70;99.90
13405;DHT22;6773;51.192;7.024;2022-11-24T11:09:18;9.70;99.90
13405;DHT22;6773;51.192;7.024;2022-11-24T11:11:45;9.70;99.90
13405;DHT22;6773;51.192;7.024;2022-11-24T11:14:32;10.00;99.90
13405;DHT22;6773;51.192;7.024;2022-11-24T11:16:58;10.30;99.90
13405;DHT22;6773;51.192;7.024;2022-11-24T11:24:41;10.30;99.90
13405;DHT22;6773;51.192;7.024;2022-11-24T11:29:42;10.30;99.90
13405;DHT22;6773;51.192;7.024;2022-11-24T11:32:28;10.60;99.90
13405;DHT22;6773;51.192;7.024;2022-11-24T11:34:55;10.90;99.90
13405;DHT22;6773;51.192;7.024;2022-11-24T11:37:24;11.00;99.90
13405;DHT22;6773;51.192;7.024;2022-11-24T11:39:53;11.40;99.90
13405;DHT22;6773;51.192;7.024;2022-11-24T11:42:37;11.50;99.90
13405;DHT22;6773;51.192;7.024;2022-11-24T11:47:54;11.30;99.90
13405;DHT22;6773;51.192;7.024;2022-11-24T11:50:26;11.40;99.90
13405;DHT22;6773;51.192;7.024;2022-11-24T12:07:13;11.40;99.90
13405;DHT22;6773;51.192;7.024;2022-11-24T12:12:59;11.80;99.90
13405;DHT22;6773;51.192;7.024;2022-11-24T12:15:43;11.90;99.90
13405;DHT22;6773;51.192;7.024;2022-11-24T12:21:17;12.70;99.90
13405;DHT22;6773;51.192;7.024;2022-11-24T12:26:51;13.20;99.90
13405;DHT22;6773;51.192;7.024;2022-11-24T12:35:13;13.70;99.90
13405;DHT22;6773;51.192;7.024;2022-11-24T12:37:51;13.50;99.90
13405;DHT22;6773;51.192;7.024;2022-11-24T12:43:21;13.70;99.90
13405;DHT22;6773;51.192;7.024;2022-11-24T12:45:57;13.90;99.90
13405;DHT22;6773;51.192;7.024;2022-11-24T12:51:35;13.80;99.90
13405;DHT22;6773;51.192;7.024;2022-11-24T12:54:04;13.60;99.90
13405;DHT22;6773;51.192;7.024;2022-11-24T12:59:31;14.00;99.90
13405;DHT22;6773;51.192;7.024;2022-11-24T13:05:12;13.90;99.90
13405;DHT22;6773;51.192;7.024;2022-11-24T13:07:44;14.10;99.90
13405;DHT22;6773;51.192;7.024;2022-11-24T13:15:31;13.30;99.90
13405;DHT22;6773;51.192;7.024;2022-11-24T13:20:29;13.30;99.90
13405;DHT22;6773;51.192;7.024;2022-11-24T13:23:00;13.90;99.90
13405;DHT22;6773;51.192;7.024;2022-11-24T13:25:33;14.30;99.90
13405;DHT22;6773;51.192;7.024;2022-11-24T13:28:03;14.30;99.90
13405;DHT22;6773;51.192;7.024;2022-11-24T13:47:00;14.50;99.90
13405;DHT22;6773;51.192;7.024;2022-11-24T13:49:53;14.60;99.90
13405;DHT22;6773;51.192;7.024;2022-11-24T13:52:39;14.10;99.90
13405;DHT22;6773;51.192;7.024;2022-11-24T13:57:45;13.70;99.90
13405;DHT22;6773;51.192;7.024;2022-11-24T14:00:29;13.40;99.90
13405;DHT22;6773;51.192;7.024;2022-11-24T14:03:25;13.40;99.90
13405;DHT22;6773;51.192;7.024;2022-11-24T14:05:52;13.70;99.90
13405;DHT22;6773;51.192;7.024;2022-11-24T14:08:26;14.30;99.90
13405;DHT22;6773;51.192;7.024;2022-11-24T14:10:55;14.30;99.90
13405;DHT22;6773;51.192;7.024;2022-11-24T14:13:27;14.80;99.90
13405;DHT22;6773;51.192;7.024;2022-11-24T14:18:37;15.00;99.90
13405;DHT22;6773;51.192;7.024;2022-11-24T14:21:41;14.60;99.90
13405;DHT22;6773;51.192;7.024;2022-11-24T14:24:23;14.50;99.90
13405;DHT22;6773;51.192;7.024;2022-11-24T14:26:50;14.40;99.90
13405;DHT22;6773;51.192;7.024;2022-11-24T14:29:20;14.40;99.90
13405;DHT22;6773;51.192;7.024;2022-11-24T14:31:54;14.20;99.90
13405;DHT22;6773;51.192;7.024;2022-11-24T14:34:21;14.10;99.90
13405;DHT22;6773;51.192;7.024;2022-11-24T14:36:47;13.60;99.90
13405;DHT22;6773;51.192;7.024;2022-11-24T14:39:18;13.20;99.90
13405;DHT22;6773;51.192;7.024;2022-11-24T14:44:25;12.40;99.90
13405;DHT22;6773;51.192;7.024;2022-11-24T14:47:05;12.10;99.90
13405;DHT22;6773;51.192;7.024;2022-11-24T14:49:32;12.00;99.90
13405;DHT22;6773;51.192;7.024;2022-11-24T14:52:07;11.70;99.90
13405;DHT22;6773;51.192;7.024;2022-11-24T14:54:36;11.40;99.90
13405;DHT22;6773;51.192;7.024;2022-11-24T15:02:44;11.20;99.90
13405;DHT22;6773;51.192;7.024;2022-11-24T15:05:12;11.00;99.90
13405;DHT22;6773;51.192;7.024;2022-11-24T15:07:40;10.80;99.90
13405;DHT22;6773;51.192;7.024;2022-11-24T15:10:50;10.70;99.90
13405;DHT22;6773;51.192;7.024;2022-11-24T15:13:19;10.60;99.90
13405;DHT22;6773;51.192;7.024;2022-11-24T15:15:48;10.50;99.90
13405;DHT22;6773;51.192;7.024;2022-11-24T15:18:34;10.40;99.90
13405;DHT22;6773;51.192;7.024;2022-11-24T15:21:00;10.40;99.90
13405;DHT22;6773;51.192;7.024;2022-11-24T15:23:28;10.30;99.90
13405;DHT22;6773;51.192;7.024;2022-11-24T15:28:45;10.10;99.90
13405;DHT22;6773;51.192;7.024;2022-11-24T15:31:12;10.10;99.90
13405;DHT22;6773;51.192;7.024;2022-11-24T15:33:39;10.00;99.90
13405;DHT22;6773;51.192;7.024;2022-11-24T15:36:05;9.90;99.90
13405;DHT22;6773;51.192;7.024;2022-11-24T15:38:31;9.90;99.90
13405;DHT22;6773;51.192;7.024;2022-11-24T15:40:59;9.80;99.90
13405;DHT22;6773;51.192;7.024;2022-11-24T15:43:31;9.70;99.90
13405;DHT22;6773;51.192;7.024;2022-11-24T15:45:58;9.60;99.90
13405;DHT22;6773;51.192;7.024;2022-11-24T15:48:24;9.60;99.90
13405;DHT22;6773;51.192;7.024;2022-11-24T15:50:50;9.50;99.90
13405;DHT22;6773;51.192;7.024;2022-11-24T15:53:22;9.50;99.90
13405;DHT22;6773;51.192;7.024;2022-11-24T15:55:49;9.40;99.90
13405;DHT22;6773;51.192;7.024;2022-11-24T15:58:15;9.30;99.90
13405;DHT22;6773;51.192;7.024;2022-11-24T16:00:42;9.30;99.90
13405;DHT22;6773;51.192;7.024;2022-11-24T16:03:08;9.20;99.90
13405;DHT22;6773;51.192;7.024;2022-11-24T16:05:35;9.20;99.90
13405;DHT22;6773;51.192;7.024;2022-11-24T16:08:01;9.20;99.90
13405;DHT22;6773;51.192;7.024;2022-11-24T16:10:35;9.20;99.90
13405;DHT22;6773;51.192;7.024;2022-11-24T16:15:27;9.20;99.90
13405;DHT22;6773;51.192;7.024;2022-11-24T16:17:52;9.10;99.90
13405;DHT22;6773;51.192;7.024;2022-11-24T16:20:18;9.20;99.90
13405;DHT22;6773;51.192;7.024;2022-11-24T16:22:44;9.20;99.90
13405;DHT22;6773;51.192;7.024;2022-11-24T16:25:10;9.10;99.90
13405;DHT22;6773;51.192;7.024;2022-11-24T16:30:03;9.10;99.90
13405;DHT22;6773;51.192;7.024;2022-11-24T16:39:47;8.90;99.90
13405;DHT22;6773;51.192;7.024;2022-11-24T16:42:13;8.90;99.90
13405;DHT22;6773;51.192;7.024;2022-11-24T16:44:39;8.90;99.90
13405;DHT22;6773;51.192;7.024;2022-11-24T16:47:05;8.90;99.90
13405;DHT22;6773;51.192;7.024;2022-11-24T16:49:31;8.80;99.90
13405;DHT22;6773;51.192;7.024;2022-11-24T16:51:56;8.80;99.90
13405;DHT22;6773;51.192;7.024;2022-11-24T16:54:22;8.80;99.90
13405;DHT22;6773;51.192;7.024;2022-11-24T16:56:48;8.80;99.90
13405;DHT22;6773;51.192;7.024;2022-11-24T16:59:13;8.70;99.90
13405;DHT22;6773;51.192;7.024;2022-11-24T17:01:39;8.80;99.90
13405;DHT22;6773;51.192;7.024;2022-11-24T17:04:05;8.70;99.90
13405;DHT22;6773;51.192;7.024;2022-11-24T17:06:32;8.70;99.90
13405;DHT22;6773;51.192;7.024;2022-11-24T17:11:25;8.70;99.90
13405;DHT22;6773;51.192;7.024;2022-11-24T17:13:51;8.60;99.90
13405;DHT22;6773;51.192;7.024;2022-11-24T17:16:19;8.70;99.90
13405;DHT22;6773;51.192;7.024;2022-11-24T17:18:45;8.60;99.90
13405;DHT22;6773;51.192;7.024;2022-11-24T17:21:16;8.50;99.90
13405;DHT22;6773;51.192;7.024;2022-11-24T17:23:42;8.50;99.90
13405;DHT22;6773;51.192;7.024;2022-11-24T17:26:13;8.40;99.90
13405;DHT22;6773;51.192;7.024;2022-11-24T17:28:40;8.40;99.90
13405;DHT22;6773;51.192;7.024;2022-11-24T17:31:25;8.40;99.90
13405;DHT22;6773;51.192;7.024;2022-11-24T17:33:53;8.30;99.90
13405;DHT22;6773;51.192;7.024;2022-11-24T17:36:19;8.30;99.90
13405;DHT22;6773;51.192;7.024;2022-11-24T17:41:13;8.20;99.90
13405;DHT22;6773;51.192;7.024;2022-11-24T17:46:05;8.20;99.90
13405;DHT22;6773;51.192;7.024;2022-11-24T17:48:31;8.20;99.90
13405;DHT22;6773;51.192;7.024;2022-11-24T17:53:30;8.10;99.90
13405;DHT22;6773;51.192;7.024;2022-11-24T17:55:59;8.10;99.90
13405;DHT22;6773;51.192;7.024;2022-11-24T17:58:30;8.10;99.90
13405;DHT22;6773;51.192;7.024;2022-11-24T18:00:56;8.10;99.90
13405;DHT22;6773;51.192;7.024;2022-11-24T18:03:23;8.00;99.90
13405;DHT22;6773;51.192;7.024;2022-11-24T18:05:50;8.10;99.90
13405;DHT22;6773;51.192;7.024;2022-11-24T18:08:15;8.20;99.90
13405;DHT22;6773;51.192;7.024;2022-11-24T18:10:41;8.10;99.90
13405;DHT22;6773;51.192;7.024;2022-11-24T18:13:07;8.10;99.90
13405;DHT22;6773;51.192;7.024;2022-11-24T18:15:33;8.00;99.90
13405;DHT22;6773;51.192;7.024;2022-11-24T18:17:59;8.00;99.90
13405;DHT22;6773;51.192;7.024;2022-11-24T18:20:25;8.00;99.90
13405;DHT22;6773;51.192;7.024;2022-11-24T18:22:54;8.00;99.90
13405;DHT22;6773;51.192;7.024;2022-11-24T18:30:12;7.90;99.90
13405;DHT22;6773;51.192;7.024;2022-11-24T18:35:05;7.70;99.90
13405;DHT22;6773;51.192;7.024;2022-11-24T18:39:58;7.70;99.90
13405;DHT22;6773;51.192;7.024;2022-11-24T18:42:25;7.70;99.90
13405;DHT22;6773;51.192;7.024;2022-11-24T18:44:51;7.70;99.90
13405;DHT22;6773;51.192;7.024;2022-11-24T18:49:42;7.70;99.90
13405;DHT22;6773;51.192;7.024;2022-11-24T18:54:34;7.70;99.90
13405;DHT22;6773;51.192;7.024;2022-11-24T18:57:00;7.70;99.90
13405;DHT22;6773;51.192;7.024;2022-11-24T19:01:51;7.60;99.90
13405;DHT22;6773;51.192;7.024;2022-11-24T19:04:17;7.60;99.90
13405;DHT22;6773;51.192;7.024;2022-11-24T19:06:43;7.50;99.90
13405;DHT22;6773;51.192;7.024;2022-11-24T19:09:14;7.50;99.90
13405;DHT22;6773;51.192;7.024;2022-11-24T19:11:42;7.50;99.90
13405;DHT22;6773;51.192;7.024;2022-11-24T19:14:11;7.50;99.90
13405;DHT22;6773;51.192;7.024;2022-11-24T19:19:04;7.50;99.90
13405;DHT22;6773;51.192;7.024;2022-11-24T19:21:32;7.50;99.90
13405;DHT22;6773;51.192;7.024;2022-11-24T19:28:50;7.50;99.90
13405;DHT22;6773;51.192;7.024;2022-11-24T19:31:16;7.50;99.90
13405;DHT22;6773;51.192;7.024;2022-11-24T19:36:17;7.50;99.90
13405;DHT22;6773;51.192;7.024;2022-11-24T19:38:52;7.60;99.90
13405;DHT22;6773;51.192;7.024;2022-11-24T19:41:19;7.60;99.90
13405;DHT22;6773;51.192;7.024;2022-11-24T19:43:46;7.60;99.90
13405;DHT22;6773;51.192;7.024;2022-11-24T19:46:14;7.60;99.90
13405;DHT22;6773;51.192;7.024;2022-11-24T19:48:45;7.60;99.90
13405;DHT22;6773;51.192;7.024;2022-11-24T19:51:14;7.60;99.90
13405;DHT22;6773;51.192;7.024;2022-11-24T19:53:41;7.60;99.90
13405;DHT22;6773;51.192;7.024;2022-11-24T19:56:10;7.60;99.90
13405;DHT22;6773;51.192;7.024;2022-11-24T19:58:36;7.50;99.90
13405;DHT22;6773;51.192;7.024;2022-11-24T20:04:13;7.50;99.90
13405;DHT22;6773;51.192;7.024;2022-11-24T20:06:42;7.50;99.90
13405;DHT22;6773;51.192;7.024;2022-11-24T20:09:09;7.40;99.90
13405;DHT22;6773;51.192;7.024;2022-11-24T20:11:36;7.50;99.90
13405;DHT22;6773;51.192;7.024;2022-11-24T20:14:02;7.50;99.90
13405;DHT22;6773;51.192;7.024;2022-11-24T20:16:30;7.50;99.90
13405;DHT22;6773;51.192;7.024;2022-11-24T20:18:58;7.50;99.90
13405;DHT22;6773;51.192;7.024;2022-11-24T20:21:25;7.50;99.90
13405;DHT22;6773;51.192;7.024;2022-11-24T20:24:03;7.40;99.90
13405;DHT22;6773;51.192;7.024;2022-11-24T20:26:31;7.40;99.90
13405;DHT22;6773;51.192;7.024;2022-11-24T20:28:58;7.30;99.90
13405;DHT22;6773;51.192;7.024;2022-11-24T20:31:27;7.30;99.90
13405;DHT22;6773;51.192;7.024;2022-11-24T20:36:22;7.30;99.90
13405;DHT22;6773;51.192;7.024;2022-11-24T20:38:49;7.30;99.90
13405;DHT22;6773;51.192;7.024;2022-11-24T20:41:17;7.20;99.90
13405;DHT22;6773;51.192;7.024;2022-11-24T20:43:45;7.20;99.90
13405;DHT22;6773;51.192;7.024;2022-11-24T20:46:13;7.10;99.90
13405;DHT22;6773;51.192;7.024;2022-11-24T20:48:40;7.20;99.90
13405;DHT22;6773;51.192;7.024;2022-11-24T20:51:10;7.10;99.90